createdAt,value
2019-05-15T00:03:54.688Z,102029.05
2019-05-15T00:09:19.054Z,102023.73
2019-05-15T00:14:39.277Z,102023.73
2019-05-15T00:19:59.960Z,102021.95
2019-05-15T00:25:22.761Z,102008.70
2019-05-15T00:30:42.941Z,102011.31
2019-05-15T00:36:03.472Z,101999.80
2019-05-15T00:41:24.007Z,102004.25
2019-05-15T00:46:44.539Z,102001.60
2019-05-15T00:52:05.104Z,102003.39
2019-05-15T00:57:25.649Z,102002.52
2019-05-15T01:02:46.174Z,101992.75
2019-05-15T01:08:08.223Z,101991.01
2019-05-15T01:13:28.956Z,101998.11
2019-05-15T01:18:50.182Z,101992.80
2019-05-15T01:24:10.736Z,101973.33
2019-05-15T01:29:41.903Z,101969.80
2019-05-15T01:34:53.775Z,101958.30
2019-05-15T01:40:14.411Z,101956.55
2019-05-15T01:45:35.073Z,101952.11
2019-05-15T01:50:55.619Z,101940.64
2019-05-15T01:56:18.579Z,101929.11
2019-05-15T02:01:39.188Z,101937.11
2019-05-15T02:07:00.060Z,101927.36
2019-05-15T02:12:21.095Z,101923.83
2019-05-15T02:17:41.639Z,101921.18
2019-05-15T02:23:02.299Z,101904.37
2019-05-15T02:28:22.984Z,101899.06
2019-05-15T02:33:43.577Z,101881.37
2019-05-15T02:39:04.178Z,101877.85
2019-05-15T02:44:24.718Z,101870.77
2019-05-15T02:49:45.274Z,101876.10
2019-05-15T02:55:08.937Z,101881.37
2019-05-15T03:00:41.855Z,101883.16
2019-05-15T03:05:51.731Z,101878.73
2019-05-15T03:11:12.396Z,101885.78
2019-05-15T03:16:33.558Z,101871.63
2019-05-15T03:21:54.193Z,101876.94
2019-05-15T03:27:14.821Z,101876.90
2019-05-15T03:32:43.675Z,101868.06
2019-05-15T03:37:59.865Z,101862.75
2019-05-15T03:43:20.084Z,101873.31
2019-05-15T03:48:40.732Z,101877.70
2019-05-15T03:54:01.317Z,101878.58
2019-05-15T03:59:21.881Z,101879.44
2019-05-15T04:04:42.507Z,101872.27
2019-05-15T04:10:03.221Z,101864.23
2019-05-15T04:15:24.727Z,101857.88
2019-05-15T04:20:45.325Z,101846.35
2019-05-15T04:26:09.483Z,101852.52
2019-05-15T04:31:50.803Z,101841.56
2019-05-15T04:36:54.215Z,101850.30
2019-05-15T04:42:14.801Z,101840.47
2019-05-15T04:47:35.370Z,101843.07
2019-05-15T04:52:59.043Z,101841.46
2019-05-15T04:58:20.679Z,101838.81
2019-05-15T05:03:40.729Z,101833.36
2019-05-15T05:09:01.325Z,101835.74
2019-05-15T05:14:21.993Z,101845.34
2019-05-15T05:19:42.552Z,101831.90
2019-05-15T05:25:03.105Z,101836.45
2019-05-15T05:30:24.446Z,101825.92
2019-05-15T05:35:45.267Z,101832.96
2019-05-15T05:41:08.201Z,101825.57
2019-05-15T05:46:29.032Z,101829.77
2019-05-15T05:51:49.612Z,101815.75
2019-05-15T05:57:10.177Z,101828.48
2019-05-15T06:02:43.853Z,101826.72
2019-05-15T06:07:53.110Z,101831.92
2019-05-15T06:13:13.707Z,101823.72
2019-05-15T06:18:34.394Z,101826.45
2019-05-15T06:23:56.381Z,101828.45
2019-05-15T06:29:17.940Z,101823.11
2019-05-15T06:34:38.632Z,101815.90
2019-05-15T06:39:59.718Z,101816.73
2019-05-15T06:45:20.776Z,101808.61
2019-05-15T06:50:49.097Z,101807.73
2019-05-15T06:56:10.339Z,101808.38
2019-05-15T07:01:30.939Z,101801.12
2019-05-15T07:06:51.599Z,101807.23
2019-05-15T07:12:12.170Z,101805.45
2019-05-15T07:17:32.768Z,101787.32
2019-05-15T07:22:53.348Z,101792.64
2019-05-15T07:28:13.944Z,101790.56
2019-05-15T07:33:40.366Z,101782.10
2019-05-15T07:38:57.950Z,101780.17
2019-05-15T07:44:19.044Z,101776.95
2019-05-15T07:49:39.651Z,101765.53
2019-05-15T07:55:00.224Z,101749.50
2019-05-15T08:00:28.873Z,101765.11
2019-05-15T08:05:58.802Z,101755.53
2019-05-15T08:11:20.464Z,101741.30
2019-05-15T08:16:34.463Z,101749.78
2019-05-15T08:21:55.015Z,101740.33
2019-05-15T08:27:15.741Z,101740.21
2019-05-15T08:32:38.707Z,101725.59
2019-05-15T08:37:58.735Z,101740.25
2019-05-15T08:43:19.402Z,101724.66
2019-05-15T08:48:39.965Z,101729.05
2019-05-15T08:54:00.557Z,101726.94
2019-05-15T08:59:21.255Z,101717.81
2019-05-15T09:04:41.833Z,101715.14
2019-05-15T09:10:02.374Z,101715.37
2019-05-15T09:15:26.265Z,101708.39
2019-05-15T09:20:49.282Z,101719.82
2019-05-15T09:26:09.424Z,101711.37
2019-05-15T09:31:30.143Z,101700.02
2019-05-15T09:36:50.765Z,101694.22
2019-05-15T09:42:11.337Z,101702.47
2019-05-15T09:47:31.901Z,101699.61
2019-05-15T09:52:52.451Z,101681.92
2019-05-15T09:58:13.035Z,101679.80
2019-05-15T10:03:33.680Z,101672.23
2019-05-15T10:08:54.296Z,101673.11
2019-05-15T10:14:15.031Z,101659.55
2019-05-15T10:19:35.668Z,101626.20
2019-05-15T10:24:58.590Z,101626.20
2019-05-15T10:30:19.689Z,101647.64
2019-05-15T10:35:40.262Z,101638.58
2019-05-15T10:41:08.714Z,101641.56
2019-05-15T10:46:23.200Z,101640.30
2019-05-15T10:51:43.763Z,101654.18
2019-05-15T10:57:05.384Z,101645.78
2019-05-15T11:02:28.921Z,101632.38
2019-05-15T11:07:49.056Z,101630.48
2019-05-15T11:13:09.614Z,101625.35
2019-05-15T11:18:31.078Z,101628.04
2019-05-15T11:23:51.642Z,101628.02
2019-05-15T11:29:12.211Z,101626.91
2019-05-15T11:34:32.783Z,101629.78
2019-05-15T11:39:53.353Z,101629.00
2019-05-15T11:45:14.009Z,101624.81
2019-05-15T11:50:36.302Z,101620.08
2019-05-15T11:55:56.844Z,101609.33
2019-05-15T12:01:19.250Z,101527.48
2019-05-15T12:06:39.845Z,101579.09
2019-05-15T12:12:00.420Z,101578.61
2019-05-15T12:17:20.999Z,101556.22
2019-05-15T12:22:41.533Z,101556.22
2019-05-15T12:28:02.104Z,101558.67
2019-05-15T12:33:22.765Z,101563.98
2019-05-15T12:38:43.631Z,101547.69
2019-05-15T13:00:12.304Z,101548.86
2019-05-15T13:05:29.080Z,101548.73
2019-05-15T13:10:49.024Z,101555.79
2019-05-15T13:16:09.639Z,101553.55
2019-05-15T13:21:30.225Z,101545.87
2019-05-15T13:26:50.795Z,101530.77
2019-05-15T13:32:12.594Z,101527.75
2019-05-15T13:37:30.587Z,101515.51
2019-05-15T13:42:51.779Z,101508.69
2019-05-15T13:48:11.710Z,101510.89
2019-05-15T13:53:32.357Z,101520.86
2019-05-15T13:58:52.941Z,101521.40
2019-05-15T14:04:13.552Z,101523.27
2019-05-15T14:09:34.735Z,101494.59
2019-05-15T14:14:58.033Z,101494.59
2019-05-15T14:20:18.704Z,101513.17
2019-05-15T14:25:39.285Z,101505.45
2019-05-15T14:30:59.987Z,101505.05
2019-05-15T14:36:20.656Z,101505.36
2019-05-15T14:41:41.234Z,101500.12
2019-05-15T14:47:01.821Z,101513.97
2019-05-15T14:52:22.556Z,101524.72
2019-05-15T14:57:43.148Z,101515.58
2019-05-15T15:03:04.190Z,101521.84
2019-05-15T15:08:25.573Z,101512.66
2019-05-15T15:13:46.343Z,101498.56
2019-05-15T15:19:06.917Z,101520.27
2019-05-15T15:24:27.490Z,101519.67
2019-05-15T15:29:48.357Z,101524.81
2019-05-15T15:35:10.348Z,101525.38
2019-05-15T15:40:25.032Z,101531.00
2019-05-15T15:45:45.597Z,101528.10
2019-05-15T15:51:08.946Z,101526.48
2019-05-15T15:56:29.116Z,101538.55
2019-05-15T16:01:50.070Z,101525.13
2019-05-15T16:07:10.593Z,101519.69
2019-05-15T16:12:31.253Z,101508.65
2019-05-15T16:17:52.369Z,101506.51
2019-05-15T16:23:12.924Z,101489.47
2019-05-15T16:28:33.491Z,101485.19
2019-05-15T16:33:54.079Z,101478.51
2019-05-15T16:39:14.966Z,101463.28
2019-05-15T16:44:38.190Z,101466.30
2019-05-15T16:49:58.062Z,101460.02
2019-05-15T16:55:20.525Z,101423.55
2019-05-15T17:00:41.561Z,101423.55
2019-05-15T17:06:02.100Z,101423.95
2019-05-15T17:11:22.684Z,101435.56
2019-05-15T17:16:44.141Z,101440.89
2019-05-15T17:22:04.689Z,101435.72
2019-05-15T17:27:25.228Z,101435.72
2019-05-15T17:32:45.848Z,101432.12
2019-05-15T17:38:06.453Z,101434.53
2019-05-15T17:43:28.749Z,101429.97
2019-05-15T17:48:55.617Z,101428.23
2019-05-15T17:54:13.954Z,101415.06
2019-05-15T17:59:37.927Z,101408.86
2019-05-15T18:05:00.923Z,101416.94
2019-05-15T18:10:23.505Z,101411.63
2019-05-15T18:15:45.747Z,101414.98
2019-05-15T18:21:08.657Z,101405.33
2019-05-15T18:26:29.678Z,101406.28
2019-05-15T18:31:50.295Z,101406.28
2019-05-15T18:37:13.240Z,101397.34
2019-05-15T18:42:34.837Z,101393.72
2019-05-15T18:47:58.470Z,101387.41
2019-05-15T18:53:18.471Z,101360.95
2019-05-15T18:58:40.429Z,101373.48
2019-05-15T19:03:55.326Z,101368.19
2019-05-15T19:09:18.986Z,101382.33
2019-05-15T19:14:39.790Z,101381.53
2019-05-15T19:20:02.503Z,101365.50
2019-05-15T19:25:25.481Z,101354.81
2019-05-15T19:30:48.157Z,101363.51
2019-05-15T19:36:10.495Z,101358.03
2019-05-15T19:41:32.807Z,101348.27
2019-05-15T19:46:55.509Z,101349.77
2019-05-15T19:52:18.074Z,101340.70
2019-05-15T20:00:40.050Z,101333.23
2019-05-15T20:06:04.313Z,101325.45
2019-05-15T20:11:28.870Z,101324.48
2019-05-15T20:16:52.517Z,101308.39
2019-05-15T20:22:18.908Z,101303.03
2019-05-15T20:27:44.884Z,101307.46
2019-05-15T20:33:09.617Z,101300.27
2019-05-15T20:38:34.004Z,101296.56
2019-05-15T20:44:01.277Z,101291.17
2019-05-15T20:49:28.443Z,101291.03
2019-05-15T20:54:50.084Z,101290.06
2019-05-15T21:00:13.932Z,101281.89
2019-05-15T21:05:38.129Z,101267.48
2019-05-15T21:11:02.896Z,101262.00
2019-05-15T21:16:27.988Z,101256.52
2019-05-15T21:21:51.272Z,101253.74
2019-05-15T21:27:14.884Z,101245.66
2019-05-15T21:32:38.513Z,101238.45
2019-05-15T21:38:00.781Z,101235.74
2019-05-15T21:43:24.730Z,101227.59
2019-05-15T21:48:48.827Z,101211.58
2019-05-15T21:54:12.779Z,101222.14
2019-05-15T21:59:38.394Z,101203.41
2019-05-15T22:05:02.996Z,101209.50
2019-05-15T22:10:26.668Z,101212.92
2019-05-15T22:15:52.400Z,101198.51
2019-05-15T22:21:18.616Z,101194.82
2019-05-15T22:26:41.875Z,101185.82
2019-05-15T22:32:04.840Z,101187.39
2019-05-15T22:37:29.554Z,101184.67
2019-05-15T22:42:52.922Z,101183.70
2019-05-15T22:48:18.235Z,101174.81
2019-05-15T22:53:41.603Z,101162.41
2019-05-15T22:59:08.414Z,101157.92
2019-05-15T23:04:32.413Z,101156.03
2019-05-15T23:09:58.309Z,101154.14
2019-05-15T23:15:22.117Z,101151.39
2019-05-15T23:20:47.848Z,101134.33
2019-05-15T23:26:12.027Z,101140.45
2019-05-15T23:31:34.532Z,101136.75
2019-05-15T23:36:57.760Z,101123.30
2019-05-15T23:42:22.641Z,101121.36
2019-05-15T23:47:48.473Z,101123.98
2019-05-15T23:53:10.741Z,101107.00
2019-05-15T23:58:33.869Z,101110.53
